Nachtflug: NVFR

Berechtigung

Zur Durchführung von Überlandflügen bei Nacht.

 

Nachtflug

 

 

 

 

 

 

 

 

 

Voraussetzungen

Die Voraussetzung für diese Qualifikation ist der LAPL (A) oder PPL (A)

Achtung: für LAPL Inhaber, ist die Instrumentenflugausbildung der PPL (A) erforderlich

Theoretische Ausbildung

zwei Stunden Theorieausbildung

Praktische Ausbildung

Zur praktischen Ausbildung gehören 5 Flugstunden bei Nacht, davon mindestens 3 Stunden Ausbildung mit einem Lehrberechtigten, davon mindestens eine Stunde Überland-Navigation mit mindestens einem Überlandflug mit Fluglehrer von mindestens 50 km und 5 Alleinstarts und 5 Alleinlandungen bis zum vollständigen Stillstand.

Prüfung

Eine Prüfung ist nicht erforderlich. Mit Abschluss der erforderlichen Flugausbildung senden wir das Antragsformular an die zuständige Luftfahrtbehörde. Sie bekommen dann eine neue Lizenz mit der Eintragung NVFR.

 

Flugwetter Augsburg

[source: ADDS]
METAR
EDMA 042250Z AUTO 35003KT 5000 // SCT160/// BKN210/// M03/M03 Q0989 =
TAF EDMA 041700Z 0418/0503 VRB03KT CAVOK BECMG 0500/0503 26008KT
TAF
TAF EDMA 041700Z 0418/0503 VRB03KT CAVOK BECMG 0500/0503 26008KT =
Cookies erleichtern die Bereitstellung unserer Dienste. Mit der Nutzung unserer Dienste erklären Sie sich damit einverstanden, dass wir Cookies verwenden.
Weitere Informationen Ok